sensor_id;sensor_type;location;lat;lon;timestamp;P1;durP1;ratioP1;P2;durP2;ratioP2
46613;SDS011;32338;50.430;6.806;2024-03-02T00:00:29;1.90;;;0.65;;
46613;SDS011;32338;50.430;6.806;2024-03-02T00:02:56;1.45;;;0.80;;
46613;SDS011;32338;50.430;6.806;2024-03-02T00:05:24;1.13;;;0.50;;
46613;SDS011;32338;50.430;6.806;2024-03-02T00:07:52;3.78;;;0.60;;
46613;SDS011;32338;50.430;6.806;2024-03-02T00:10:21;0.70;;;0.40;;
46613;SDS011;32338;50.430;6.806;2024-03-02T00:12:50;2.83;;;0.60;;
46613;SDS011;32338;50.430;6.806;2024-03-02T00:15:35;2.05;;;0.55;;
46613;SDS011;32338;50.430;6.806;2024-03-02T00:18:08;2.13;;;0.65;;
46613;SDS011;32338;50.430;6.806;2024-03-02T00:20:38;5.50;;;0.60;;
46613;SDS011;32338;50.430;6.806;2024-03-02T00:23:05;1.48;;;0.50;;
46613;SDS011;32338;50.430;6.806;2024-03-02T00:25:37;1.80;;;0.60;;
46613;SDS011;32338;50.430;6.806;2024-03-02T00:28:06;1.40;;;0.55;;
46613;SDS011;32338;50.430;6.806;2024-03-02T00:30:50;1.67;;;0.50;;
46613;SDS011;32338;50.430;6.806;2024-03-02T00:33:20;1.05;;;0.63;;
46613;SDS011;32338;50.430;6.806;2024-03-02T00:35:49;2.63;;;0.80;;
46613;SDS011;32338;50.430;6.806;2024-03-02T00:38:16;1.63;;;0.90;;
46613;SDS011;32338;50.430;6.806;2024-03-02T00:40:43;3.28;;;0.50;;
46613;SDS011;32338;50.430;6.806;2024-03-02T00:43:16;2.70;;;0.60;;
46613;SDS011;32338;50.430;6.806;2024-03-02T00:46:00;1.42;;;0.70;;
46613;SDS011;32338;50.430;6.806;2024-03-02T00:48:27;1.38;;;0.52;;
46613;SDS011;32338;50.430;6.806;2024-03-02T00:50:57;0.50;;;0.40;;
46613;SDS011;32338;50.430;6.806;2024-03-02T00:53:25;1.40;;;0.50;;
46613;SDS011;32338;50.430;6.806;2024-03-02T00:55:52;1.45;;;0.57;;
46613;SDS011;32338;50.430;6.806;2024-03-02T00:58:19;0.40;;;0.30;;
46613;SDS011;32338;50.430;6.806;2024-03-02T01:00:46;1.23;;;0.68;;
46613;SDS011;32338;50.430;6.806;2024-03-02T01:03:12;2.10;;;0.55;;
46613;SDS011;32338;50.430;6.806;2024-03-02T01:05:40;1.55;;;0.75;;
46613;SDS011;32338;50.430;6.806;2024-03-02T01:08:08;1.48;;;0.55;;
46613;SDS011;32338;50.430;6.806;2024-03-02T01:10:35;2.90;;;0.55;;
46613;SDS011;32338;50.430;6.806;2024-03-02T01:13:02;3.28;;;0.82;;
46613;SDS011;32338;50.430;6.806;2024-03-02T01:15:29;1.23;;;0.70;;
46613;SDS011;32338;50.430;6.806;2024-03-02T01:17:56;1.90;;;0.80;;
46613;SDS011;32338;50.430;6.806;2024-03-02T01:20:23;1.10;;;0.60;;
46613;SDS011;32338;50.430;6.806;2024-03-02T01:22:50;1.00;;;0.43;;
46613;SDS011;32338;50.430;6.806;2024-03-02T01:25:18;1.33;;;0.50;;
46613;SDS011;32338;50.430;6.806;2024-03-02T01:27:45;1.98;;;0.40;;
46613;SDS011;32338;50.430;6.806;2024-03-02T01:30:12;1.10;;;0.50;;
46613;SDS011;32338;50.430;6.806;2024-03-02T01:32:38;2.55;;;0.40;;
46613;SDS011;32338;50.430;6.806;2024-03-02T01:35:05;1.30;;;0.40;;
46613;SDS011;32338;50.430;6.806;2024-03-02T01:37:32;1.15;;;0.45;;
46613;SDS011;32338;50.430;6.806;2024-03-02T01:40:00;0.82;;;0.43;;
46613;SDS011;32338;50.430;6.806;2024-03-02T01:42:28;0.98;;;0.43;;
46613;SDS011;32338;50.430;6.806;2024-03-02T01:44:55;1.02;;;0.30;;
46613;SDS011;32338;50.430;6.806;2024-03-02T01:47:22;1.73;;;0.60;;
46613;SDS011;32338;50.430;6.806;2024-03-02T01:49:49;1.13;;;0.35;;
46613;SDS011;32338;50.430;6.806;2024-03-02T01:52:15;0.70;;;0.32;;
46613;SDS011;32338;50.430;6.806;2024-03-02T01:54:42;0.88;;;0.40;;
46613;SDS011;32338;50.430;6.806;2024-03-02T01:57:09;1.50;;;0.88;;
46613;SDS011;32338;50.430;6.806;2024-03-02T01:59:37;3.13;;;0.50;;
46613;SDS011;32338;50.430;6.806;2024-03-02T02:02:04;2.28;;;0.40;;
46613;SDS011;32338;50.430;6.806;2024-03-02T02:04:30;4.80;;;0.45;;
46613;SDS011;32338;50.430;6.806;2024-03-02T02:06:59;1.10;;;0.40;;
46613;SDS011;32338;50.430;6.806;2024-03-02T02:09:26;2.80;;;0.47;;
46613;SDS011;32338;50.430;6.806;2024-03-02T02:11:52;1.58;;;0.30;;
46613;SDS011;32338;50.430;6.806;2024-03-02T02:14:19;3.03;;;0.50;;
46613;SDS011;32338;50.430;6.806;2024-03-02T02:16:47;3.92;;;0.30;;
46613;SDS011;32338;50.430;6.806;2024-03-02T02:19:14;1.02;;;0.40;;
46613;SDS011;32338;50.430;6.806;2024-03-02T02:21:43;0.50;;;0.30;;
46613;SDS011;32338;50.430;6.806;2024-03-02T02:24:10;4.60;;;0.50;;
46613;SDS011;32338;50.430;6.806;2024-03-02T02:26:38;5.93;;;0.60;;
46613;SDS011;32338;50.430;6.806;2024-03-02T02:29:04;0.50;;;0.30;;
46613;SDS011;32338;50.430;6.806;2024-03-02T02:31:36;2.38;;;0.43;;
46613;SDS011;32338;50.430;6.806;2024-03-02T02:34:04;2.35;;;0.40;;
46613;SDS011;32338;50.430;6.806;2024-03-02T02:36:31;0.70;;;0.30;;
46613;SDS011;32338;50.430;6.806;2024-03-02T02:38:59;1.65;;;0.30;;
46613;SDS011;32338;50.430;6.806;2024-03-02T02:41:28;1.55;;;0.40;;
46613;SDS011;32338;50.430;6.806;2024-03-02T02:43:55;0.90;;;0.40;;
46613;SDS011;32338;50.430;6.806;2024-03-02T02:46:22;2.20;;;0.77;;
46613;SDS011;32338;50.430;6.806;2024-03-02T02:48:48;0.70;;;0.30;;
46613;SDS011;32338;50.430;6.806;2024-03-02T02:51:16;0.82;;;0.30;;
46613;SDS011;32338;50.430;6.806;2024-03-02T02:53:43;3.22;;;0.45;;
46613;SDS011;32338;50.430;6.806;2024-03-02T02:56:11;2.13;;;0.50;;
46613;SDS011;32338;50.430;6.806;2024-03-02T02:58:37;1.38;;;0.40;;
46613;SDS011;32338;50.430;6.806;2024-03-02T03:01:05;2.58;;;0.50;;
46613;SDS011;32338;50.430;6.806;2024-03-02T03:03:32;2.80;;;0.60;;
46613;SDS011;32338;50.430;6.806;2024-03-02T03:05:59;1.10;;;0.45;;
46613;SDS011;32338;50.430;6.806;2024-03-02T03:08:26;4.65;;;0.80;;
46613;SDS011;32338;50.430;6.806;2024-03-02T03:10:52;1.92;;;0.50;;
46613;SDS011;32338;50.430;6.806;2024-03-02T03:13:20;2.67;;;0.60;;
46613;SDS011;32338;50.430;6.806;2024-03-02T03:15:47;2.08;;;0.50;;
46613;SDS011;32338;50.430;6.806;2024-03-02T03:18:14;1.00;;;0.50;;
46613;SDS011;32338;50.430;6.806;2024-03-02T03:20:41;1.20;;;0.50;;
46613;SDS011;32338;50.430;6.806;2024-03-02T03:23:07;3.63;;;0.65;;
46613;SDS011;32338;50.430;6.806;2024-03-02T03:25:34;1.73;;;0.50;;
46613;SDS011;32338;50.430;6.806;2024-03-02T03:28:01;1.23;;;0.60;;
46613;SDS011;32338;50.430;6.806;2024-03-02T03:30:29;1.13;;;0.60;;
46613;SDS011;32338;50.430;6.806;2024-03-02T03:32:56;0.93;;;0.50;;
46613;SDS011;32338;50.430;6.806;2024-03-02T03:35:22;1.45;;;0.55;;
46613;SDS011;32338;50.430;6.806;2024-03-02T03:37:49;2.13;;;0.80;;
46613;SDS011;32338;50.430;6.806;2024-03-02T03:40:16;1.63;;;0.70;;
46613;SDS011;32338;50.430;6.806;2024-03-02T03:42:43;2.95;;;1.02;;
46613;SDS011;32338;50.430;6.806;2024-03-02T03:45:10;2.42;;;0.70;;
46613;SDS011;32338;50.430;6.806;2024-03-02T03:47:38;4.88;;;1.15;;
46613;SDS011;32338;50.430;6.806;2024-03-02T03:50:05;2.65;;;0.98;;
46613;SDS011;32338;50.430;6.806;2024-03-02T03:52:32;2.38;;;0.90;;
46613;SDS011;32338;50.430;6.806;2024-03-02T03:54:59;1.88;;;0.65;;
46613;SDS011;32338;50.430;6.806;2024-03-02T03:57:26;2.50;;;0.82;;
46613;SDS011;32338;50.430;6.806;2024-03-02T03:59:52;6.75;;;0.82;;
46613;SDS011;32338;50.430;6.806;2024-03-02T04:02:19;2.38;;;0.60;;
46613;SDS011;32338;50.430;6.806;2024-03-02T04:04:47;1.13;;;0.80;;
46613;SDS011;32338;50.430;6.806;2024-03-02T04:07:14;2.47;;;0.80;;
46613;SDS011;32338;50.430;6.806;2024-03-02T04:09:40;1.30;;;0.52;;
46613;SDS011;32338;50.430;6.806;2024-03-02T04:12:07;5.10;;;1.13;;
46613;SDS011;32338;50.430;6.806;2024-03-02T04:14:34;3.58;;;1.10;;
46613;SDS011;32338;50.430;6.806;2024-03-02T04:17:00;1.95;;;0.88;;
46613;SDS011;32338;50.430;6.806;2024-03-02T04:19:27;3.03;;;1.00;;
46613;SDS011;32338;50.430;6.806;2024-03-02T04:21:55;2.20;;;1.00;;
46613;SDS011;32338;50.430;6.806;2024-03-02T04:24:21;3.95;;;0.93;;
46613;SDS011;32338;50.430;6.806;2024-03-02T04:26:48;2.58;;;0.88;;
46613;SDS011;32338;50.430;6.806;2024-03-02T04:29:15;2.75;;;1.13;;
46613;SDS011;32338;50.430;6.806;2024-03-02T04:31:41;2.75;;;0.90;;
46613;SDS011;32338;50.430;6.806;2024-03-02T04:34:08;2.90;;;0.73;;
46613;SDS011;32338;50.430;6.806;2024-03-02T04:36:35;4.63;;;1.13;;
46613;SDS011;32338;50.430;6.806;2024-03-02T04:39:03;2.30;;;0.93;;
46613;SDS011;32338;50.430;6.806;2024-03-02T04:41:34;2.85;;;1.10;;
46613;SDS011;32338;50.430;6.806;2024-03-02T04:44:01;0.95;;;0.65;;
46613;SDS011;32338;50.430;6.806;2024-03-02T04:46:28;0.95;;;0.63;;
46613;SDS011;32338;50.430;6.806;2024-03-02T04:48:54;1.27;;;0.77;;
46613;SDS011;32338;50.430;6.806;2024-03-02T04:51:22;4.82;;;0.70;;
46613;SDS011;32338;50.430;6.806;2024-03-02T04:53:48;1.25;;;0.70;;
46613;SDS011;32338;50.430;6.806;2024-03-02T04:56:16;2.47;;;0.60;;
46613;SDS011;32338;50.430;6.806;2024-03-02T04:59:04;1.55;;;0.70;;
46613;SDS011;32338;50.430;6.806;2024-03-02T05:01:31;0.90;;;0.57;;
46613;SDS011;32338;50.430;6.806;2024-03-02T05:03:58;1.23;;;0.60;;
46613;SDS011;32338;50.430;6.806;2024-03-02T05:06:24;0.88;;;0.50;;
46613;SDS011;32338;50.430;6.806;2024-03-02T05:08:51;0.57;;;0.43;;
46613;SDS011;32338;50.430;6.806;2024-03-02T05:11:19;1.45;;;0.50;;
46613;SDS011;32338;50.430;6.806;2024-03-02T05:14:04;3.15;;;0.70;;
46613;SDS011;32338;50.430;6.806;2024-03-02T05:16:32;1.67;;;0.50;;
46613;SDS011;32338;50.430;6.806;2024-03-02T05:18:59;1.27;;;0.65;;
46613;SDS011;32338;50.430;6.806;2024-03-02T05:21:26;0.98;;;0.57;;
46613;SDS011;32338;50.430;6.806;2024-03-02T05:23:52;2.08;;;0.80;;
46613;SDS011;32338;50.430;6.806;2024-03-02T05:26:20;2.10;;;0.73;;
46613;SDS011;32338;50.430;6.806;2024-03-02T05:28:47;1.98;;;0.70;;
46613;SDS011;32338;50.430;6.806;2024-03-02T05:31:14;3.85;;;1.00;;
46613;SDS011;32338;50.430;6.806;2024-03-02T05:33:42;1.55;;;0.77;;
46613;SDS011;32338;50.430;6.806;2024-03-02T05:36:08;1.83;;;0.80;;
46613;SDS011;32338;50.430;6.806;2024-03-02T05:38:35;1.05;;;0.77;;
46613;SDS011;32338;50.430;6.806;2024-03-02T05:41:02;1.52;;;0.75;;
46613;SDS011;32338;50.430;6.806;2024-03-02T05:43:31;1.25;;;0.90;;
46613;SDS011;32338;50.430;6.806;2024-03-02T05:45:57;1.90;;;0.90;;
46613;SDS011;32338;50.430;6.806;2024-03-02T05:48:24;1.17;;;0.60;;
46613;SDS011;32338;50.430;6.806;2024-03-02T05:50:51;4.22;;;0.90;;
46613;SDS011;32338;50.430;6.806;2024-03-02T05:53:17;1.77;;;0.90;;
46613;SDS011;32338;50.430;6.806;2024-03-02T05:55:44;4.68;;;1.15;;
46613;SDS011;32338;50.430;6.806;2024-03-02T05:58:11;1.42;;;0.90;;
46613;SDS011;32338;50.430;6.806;2024-03-02T06:00:52;1.33;;;0.88;;
46613;SDS011;32338;50.430;6.806;2024-03-02T06:03:19;2.22;;;0.85;;
46613;SDS011;32338;50.430;6.806;2024-03-02T06:05:46;4.03;;;0.93;;
46613;SDS011;32338;50.430;6.806;2024-03-02T06:08:14;1.63;;;0.80;;
46613;SDS011;32338;50.430;6.806;2024-03-02T06:10:40;2.20;;;1.05;;
46613;SDS011;32338;50.430;6.806;2024-03-02T06:13:07;1.63;;;1.05;;
46613;SDS011;32338;50.430;6.806;2024-03-02T06:15:34;2.33;;;0.80;;
46613;SDS011;32338;50.430;6.806;2024-03-02T06:18:02;2.78;;;0.90;;
46613;SDS011;32338;50.430;6.806;2024-03-02T06:20:31;2.10;;;0.80;;
46613;SDS011;32338;50.430;6.806;2024-03-02T06:22:58;1.23;;;0.70;;
46613;SDS011;32338;50.430;6.806;2024-03-02T06:25:24;2.08;;;1.00;;
46613;SDS011;32338;50.430;6.806;2024-03-02T06:27:51;1.40;;;0.90;;
46613;SDS011;32338;50.430;6.806;2024-03-02T06:30:18;1.65;;;0.77;;
46613;SDS011;32338;50.430;6.806;2024-03-02T06:32:44;1.45;;;0.90;;
46613;SDS011;32338;50.430;6.806;2024-03-02T06:35:12;2.15;;;1.13;;
46613;SDS011;32338;50.430;6.806;2024-03-02T06:37:39;3.38;;;1.00;;
46613;SDS011;32338;50.430;6.806;2024-03-02T06:40:06;2.65;;;0.82;;
46613;SDS011;32338;50.430;6.806;2024-03-02T06:42:34;2.88;;;1.10;;
46613;SDS011;32338;50.430;6.806;2024-03-02T06:45:00;1.88;;;1.05;;
46613;SDS011;32338;50.430;6.806;2024-03-02T06:47:28;2.05;;;0.93;;
46613;SDS011;32338;50.430;6.806;2024-03-02T06:49:54;1.20;;;0.82;;
46613;SDS011;32338;50.430;6.806;2024-03-02T06:52:23;1.65;;;0.90;;
46613;SDS011;32338;50.430;6.806;2024-03-02T06:54:50;1.77;;;1.08;;
46613;SDS011;32338;50.430;6.806;2024-03-02T06:57:17;2.42;;;0.98;;
46613;SDS011;32338;50.430;6.806;2024-03-02T06:59:44;3.45;;;0.85;;
46613;SDS011;32338;50.430;6.806;2024-03-02T07:02:11;1.52;;;0.80;;
46613;SDS011;32338;50.430;6.806;2024-03-02T07:04:38;1.90;;;0.65;;
46613;SDS011;32338;50.430;6.806;2024-03-02T07:07:05;1.83;;;0.60;;
46613;SDS011;32338;50.430;6.806;2024-03-02T07:09:33;2.42;;;0.90;;
46613;SDS011;32338;50.430;6.806;2024-03-02T07:12:00;1.80;;;0.52;;
46613;SDS011;32338;50.430;6.806;2024-03-02T07:14:27;1.17;;;0.70;;
46613;SDS011;32338;50.430;6.806;2024-03-02T07:17:20;2.38;;;0.60;;
46613;SDS011;32338;50.430;6.806;2024-03-02T07:19:46;0.63;;;0.57;;
46613;SDS011;32338;50.430;6.806;2024-03-02T07:22:12;1.40;;;0.50;;
46613;SDS011;32338;50.430;6.806;2024-03-02T07:24:41;2.22;;;0.50;;
46613;SDS011;32338;50.430;6.806;2024-03-02T07:27:08;3.28;;;0.50;;
46613;SDS011;32338;50.430;6.806;2024-03-02T07:29:35;1.10;;;0.55;;
46613;SDS011;32338;50.430;6.806;2024-03-02T07:32:02;1.38;;;0.55;;
46613;SDS011;32338;50.430;6.806;2024-03-02T07:34:29;1.25;;;0.55;;
46613;SDS011;32338;50.430;6.806;2024-03-02T07:36:56;1.55;;;0.60;;
46613;SDS011;32338;50.430;6.806;2024-03-02T07:39:22;1.85;;;0.47;;
46613;SDS011;32338;50.430;6.806;2024-03-02T07:41:51;1.50;;;0.40;;
46613;SDS011;32338;50.430;6.806;2024-03-02T07:44:18;2.30;;;0.93;;
46613;SDS011;32338;50.430;6.806;2024-03-02T07:46:45;1.33;;;0.52;;
46613;SDS011;32338;50.430;6.806;2024-03-02T07:49:12;1.48;;;0.65;;
46613;SDS011;32338;50.430;6.806;2024-03-02T07:51:39;1.60;;;0.65;;
46613;SDS011;32338;50.430;6.806;2024-03-02T07:54:06;1.13;;;0.70;;
46613;SDS011;32338;50.430;6.806;2024-03-02T07:56:32;4.10;;;0.50;;
46613;SDS011;32338;50.430;6.806;2024-03-02T07:59:00;0.50;;;0.50;;
46613;SDS011;32338;50.430;6.806;2024-03-02T08:01:27;2.83;;;0.55;;
46613;SDS011;32338;50.430;6.806;2024-03-02T08:03:55;2.10;;;0.68;;
46613;SDS011;32338;50.430;6.806;2024-03-02T08:06:23;3.00;;;0.52;;
46613;SDS011;32338;50.430;6.806;2024-03-02T08:08:52;2.60;;;0.60;;
46613;SDS011;32338;50.430;6.806;2024-03-02T08:11:19;1.48;;;0.55;;
46613;SDS011;32338;50.430;6.806;2024-03-02T08:13:46;2.25;;;0.73;;
46613;SDS011;32338;50.430;6.806;2024-03-02T08:16:14;1.10;;;0.75;;
46613;SDS011;32338;50.430;6.806;2024-03-02T08:18:41;1.10;;;0.32;;
46613;SDS011;32338;50.430;6.806;2024-03-02T08:21:08;2.53;;;0.50;;
46613;SDS011;32338;50.430;6.806;2024-03-02T08:23:35;0.85;;;0.40;;
46613;SDS011;32338;50.430;6.806;2024-03-02T08:26:01;1.90;;;0.25;;
46613;SDS011;32338;50.430;6.806;2024-03-02T08:28:29;0.65;;;0.30;;
46613;SDS011;32338;50.430;6.806;2024-03-02T08:30:55;2.67;;;0.52;;
46613;SDS011;32338;50.430;6.806;2024-03-02T08:33:23;1.23;;;0.40;;
46613;SDS011;32338;50.430;6.806;2024-03-02T08:35:50;0.60;;;0.30;;
46613;SDS011;32338;50.430;6.806;2024-03-02T08:38:17;0.60;;;0.43;;
46613;SDS011;32338;50.430;6.806;2024-03-02T08:40:43;2.08;;;0.38;;
46613;SDS011;32338;50.430;6.806;2024-03-02T08:43:10;1.65;;;0.30;;
46613;SDS011;32338;50.430;6.806;2024-03-02T08:45:37;0.50;;;0.50;;
46613;SDS011;32338;50.430;6.806;2024-03-02T08:48:05;1.38;;;0.70;;
46613;SDS011;32338;50.430;6.806;2024-03-02T08:50:34;0.93;;;0.60;;
46613;SDS011;32338;50.430;6.806;2024-03-02T08:53:01;1.85;;;0.60;;
46613;SDS011;32338;50.430;6.806;2024-03-02T08:55:29;1.83;;;0.60;;
46613;SDS011;32338;50.430;6.806;2024-03-02T08:57:56;0.75;;;0.50;;
46613;SDS011;32338;50.430;6.806;2024-03-02T09:00:23;0.88;;;0.43;;
46613;SDS011;32338;50.430;6.806;2024-03-02T09:02:50;3.53;;;0.65;;
46613;SDS011;32338;50.430;6.806;2024-03-02T09:05:16;2.55;;;0.47;;
46613;SDS011;32338;50.430;6.806;2024-03-02T09:07:44;2.25;;;0.50;;
46613;SDS011;32338;50.430;6.806;2024-03-02T09:10:11;0.60;;;0.45;;
46613;SDS011;32338;50.430;6.806;2024-03-02T09:12:38;0.50;;;0.50;;
46613;SDS011;32338;50.430;6.806;2024-03-02T09:15:05;2.42;;;0.70;;
46613;SDS011;32338;50.430;6.806;2024-03-02T09:17:32;3.63;;;0.45;;
46613;SDS011;32338;50.430;6.806;2024-03-02T09:19:59;3.05;;;1.33;;
46613;SDS011;32338;50.430;6.806;2024-03-02T09:22:26;1.60;;;0.57;;
46613;SDS011;32338;50.430;6.806;2024-03-02T09:24:54;2.42;;;0.73;;
46613;SDS011;32338;50.430;6.806;2024-03-02T09:27:20;2.10;;;0.60;;
46613;SDS011;32338;50.430;6.806;2024-03-02T09:29:47;3.85;;;0.50;;
46613;SDS011;32338;50.430;6.806;2024-03-02T09:32:14;5.15;;;0.60;;
46613;SDS011;32338;50.430;6.806;2024-03-02T09:34:41;1.08;;;0.22;;
46613;SDS011;32338;50.430;6.806;2024-03-02T09:37:08;3.85;;;0.30;;
46613;SDS011;32338;50.430;6.806;2024-03-02T09:39:35;0.47;;;0.32;;
46613;SDS011;32338;50.430;6.806;2024-03-02T09:42:03;1.80;;;0.38;;
46613;SDS011;32338;50.430;6.806;2024-03-02T09:44:30;2.78;;;0.30;;
46613;SDS011;32338;50.430;6.806;2024-03-02T09:46:58;2.35;;;0.40;;
46613;SDS011;32338;50.430;6.806;2024-03-02T09:49:25;1.20;;;0.20;;
46613;SDS011;32338;50.430;6.806;2024-03-02T09:51:52;0.65;;;0.20;;
46613;SDS011;32338;50.430;6.806;2024-03-02T09:54:19;2.17;;;0.40;;
46613;SDS011;32338;50.430;6.806;2024-03-02T09:56:46;2.95;;;0.43;;
46613;SDS011;32338;50.430;6.806;2024-03-02T09:59:14;1.45;;;0.47;;
46613;SDS011;32338;50.430;6.806;2024-03-02T10:01:55;0.80;;;0.30;;
46613;SDS011;32338;50.430;6.806;2024-03-02T10:04:22;1.20;;;0.50;;
46613;SDS011;32338;50.430;6.806;2024-03-02T10:06:49;0.93;;;0.50;;
46613;SDS011;32338;50.430;6.806;2024-03-02T10:09:22;2.65;;;0.57;;
46613;SDS011;32338;50.430;6.806;2024-03-02T10:12:01;1.48;;;0.50;;
46613;SDS011;32338;50.430;6.806;2024-03-02T10:14:31;1.10;;;0.50;;
46613;SDS011;32338;50.430;6.806;2024-03-02T10:17:01;2.97;;;0.63;;
46613;SDS011;32338;50.430;6.806;2024-03-02T10:19:29;1.02;;;0.65;;
46613;SDS011;32338;50.430;6.806;2024-03-02T10:21:58;2.92;;;0.70;;
46613;SDS011;32338;50.430;6.806;2024-03-02T10:24:25;1.60;;;0.70;;
46613;SDS011;32338;50.430;6.806;2024-03-02T10:26:52;3.28;;;0.63;;
46613;SDS011;32338;50.430;6.806;2024-03-02T10:29:19;1.63;;;0.68;;
46613;SDS011;32338;50.430;6.806;2024-03-02T10:31:47;0.90;;;0.65;;
46613;SDS011;32338;50.430;6.806;2024-03-02T10:34:13;5.10;;;0.50;;
46613;SDS011;32338;50.430;6.806;2024-03-02T10:36:41;0.68;;;0.60;;
46613;SDS011;32338;50.430;6.806;2024-03-02T10:39:09;0.68;;;0.57;;
46613;SDS011;32338;50.430;6.806;2024-03-02T10:41:36;4.00;;;0.80;;
46613;SDS011;32338;50.430;6.806;2024-03-02T10:44:04;2.60;;;0.70;;
46613;SDS011;32338;50.430;6.806;2024-03-02T10:46:32;1.20;;;0.63;;
46613;SDS011;32338;50.430;6.806;2024-03-02T10:49:01;1.85;;;0.90;;
46613;SDS011;32338;50.430;6.806;2024-03-02T10:51:30;5.60;;;1.42;;
46613;SDS011;32338;50.430;6.806;2024-03-02T10:53:57;1.63;;;1.10;;
46613;SDS011;32338;50.430;6.806;2024-03-02T10:56:27;1.35;;;0.60;;
46613;SDS011;32338;50.430;6.806;2024-03-02T10:58:55;0.60;;;0.50;;
46613;SDS011;32338;50.430;6.806;2024-03-02T11:01:27;1.33;;;0.80;;
46613;SDS011;32338;50.430;6.806;2024-03-02T11:03:55;0.75;;;0.60;;
46613;SDS011;32338;50.430;6.806;2024-03-02T11:06:24;1.08;;;0.52;;
46613;SDS011;32338;50.430;6.806;2024-03-02T11:08:54;1.70;;;0.88;;
46613;SDS011;32338;50.430;6.806;2024-03-02T11:11:27;1.30;;;0.60;;
46613;SDS011;32338;50.430;6.806;2024-03-02T11:13:56;3.00;;;0.77;;
46613;SDS011;32338;50.430;6.806;2024-03-02T11:16:33;1.10;;;0.85;;
46613;SDS011;32338;50.430;6.806;2024-03-02T11:19:02;1.92;;;0.70;;
46613;SDS011;32338;50.430;6.806;2024-03-02T11:21:32;1.17;;;0.70;;
46613;SDS011;32338;50.430;6.806;2024-03-02T11:24:00;1.63;;;0.45;;
46613;SDS011;32338;50.430;6.806;2024-03-02T11:26:48;1.13;;;0.68;;
46613;SDS011;32338;50.430;6.806;2024-03-02T11:29:25;1.42;;;0.60;;
46613;SDS011;32338;50.430;6.806;2024-03-02T11:32:13;0.90;;;0.80;;
46613;SDS011;32338;50.430;6.806;2024-03-02T11:34:42;2.03;;;0.85;;
46613;SDS011;32338;50.430;6.806;2024-03-02T11:37:13;1.13;;;0.55;;
46613;SDS011;32338;50.430;6.806;2024-03-02T11:39:41;2.22;;;0.80;;
46613;SDS011;32338;50.430;6.806;2024-03-02T11:42:09;2.88;;;0.80;;
46613;SDS011;32338;50.430;6.806;2024-03-02T11:44:39;1.60;;;1.00;;
46613;SDS011;32338;50.430;6.806;2024-03-02T11:47:07;3.53;;;1.45;;
46613;SDS011;32338;50.430;6.806;2024-03-02T11:49:37;2.22;;;1.00;;
46613;SDS011;32338;50.430;6.806;2024-03-02T11:52:05;1.70;;;0.73;;
46613;SDS011;32338;50.430;6.806;2024-03-02T11:54:34;3.33;;;0.45;;
46613;SDS011;32338;50.430;6.806;2024-03-02T11:57:04;1.10;;;0.50;;
46613;SDS011;32338;50.430;6.806;2024-03-02T11:59:32;1.45;;;0.40;;
46613;SDS011;32338;50.430;6.806;2024-03-02T12:01:59;1.17;;;0.40;;
46613;SDS011;32338;50.430;6.806;2024-03-02T12:04:26;0.80;;;0.38;;
46613;SDS011;32338;50.430;6.806;2024-03-02T12:06:54;1.05;;;0.40;;
46613;SDS011;32338;50.430;6.806;2024-03-02T12:09:21;0.70;;;0.40;;
46613;SDS011;32338;50.430;6.806;2024-03-02T12:11:49;0.75;;;0.40;;
46613;SDS011;32338;50.430;6.806;2024-03-02T12:14:28;1.75;;;0.40;;
46613;SDS011;32338;50.430;6.806;2024-03-02T12:16:55;2.00;;;0.40;;
46613;SDS011;32338;50.430;6.806;2024-03-02T12:19:23;0.40;;;0.32;;
46613;SDS011;32338;50.430;6.806;2024-03-02T12:21:50;0.80;;;0.40;;
46613;SDS011;32338;50.430;6.806;2024-03-02T12:24:17;0.88;;;0.38;;
46613;SDS011;32338;50.430;6.806;2024-03-02T12:26:43;0.55;;;0.30;;
46613;SDS011;32338;50.430;6.806;2024-03-02T12:29:13;4.13;;;0.75;;
46613;SDS011;32338;50.430;6.806;2024-03-02T12:31:41;0.88;;;0.40;;
46613;SDS011;32338;50.430;6.806;2024-03-02T12:34:08;0.88;;;0.30;;
46613;SDS011;32338;50.430;6.806;2024-03-02T12:36:36;1.27;;;0.40;;
46613;SDS011;32338;50.430;6.806;2024-03-02T12:39:04;0.65;;;0.32;;
46613;SDS011;32338;50.430;6.806;2024-03-02T12:41:31;0.75;;;0.50;;
46613;SDS011;32338;50.430;6.806;2024-03-02T12:43:57;1.02;;;0.30;;
46613;SDS011;32338;50.430;6.806;2024-03-02T12:46:25;0.50;;;0.30;;
46613;SDS011;32338;50.430;6.806;2024-03-02T12:48:52;1.15;;;0.32;;
46613;SDS011;32338;50.430;6.806;2024-03-02T12:51:19;2.33;;;0.40;;
46613;SDS011;32338;50.430;6.806;2024-03-02T12:53:52;1.88;;;0.40;;
46613;SDS011;32338;50.430;6.806;2024-03-02T12:56:19;0.65;;;0.32;;
46613;SDS011;32338;50.430;6.806;2024-03-02T12:58:46;0.40;;;0.38;;
46613;SDS011;32338;50.430;6.806;2024-03-02T13:01:14;0.50;;;0.40;;
46613;SDS011;32338;50.430;6.806;2024-03-02T13:03:45;1.75;;;0.20;;
46613;SDS011;32338;50.430;6.806;2024-03-02T13:06:16;0.77;;;0.50;;
46613;SDS011;32338;50.430;6.806;2024-03-02T13:08:43;1.08;;;0.45;;
46613;SDS011;32338;50.430;6.806;2024-03-02T13:11:11;1.10;;;0.50;;
46613;SDS011;32338;50.430;6.806;2024-03-02T13:13:38;0.52;;;0.30;;
46613;SDS011;32338;50.430;6.806;2024-03-02T13:16:07;0.70;;;0.30;;
46613;SDS011;32338;50.430;6.806;2024-03-02T13:18:35;0.40;;;0.30;;
46613;SDS011;32338;50.430;6.806;2024-03-02T13:21:03;0.28;;;0.28;;
46613;SDS011;32338;50.430;6.806;2024-03-02T13:23:30;0.85;;;0.40;;
46613;SDS011;32338;50.430;6.806;2024-03-02T13:25:57;0.80;;;0.40;;
46613;SDS011;32338;50.430;6.806;2024-03-02T13:28:24;1.38;;;0.50;;
46613;SDS011;32338;50.430;6.806;2024-03-02T13:30:51;1.00;;;0.50;;
46613;SDS011;32338;50.430;6.806;2024-03-02T13:33:17;1.65;;;0.30;;
46613;SDS011;32338;50.430;6.806;2024-03-02T13:35:47;0.90;;;0.30;;
46613;SDS011;32338;50.430;6.806;2024-03-02T13:38:16;0.80;;;0.35;;
46613;SDS011;32338;50.430;6.806;2024-03-02T13:40:42;2.63;;;0.60;;
46613;SDS011;32338;50.430;6.806;2024-03-02T13:43:09;1.00;;;0.30;;
46613;SDS011;32338;50.430;6.806;2024-03-02T13:45:36;1.50;;;0.40;;
46613;SDS011;32338;50.430;6.806;2024-03-02T13:48:03;0.35;;;0.30;;
46613;SDS011;32338;50.430;6.806;2024-03-02T13:50:30;0.80;;;0.30;;
46613;SDS011;32338;50.430;6.806;2024-03-02T13:52:58;1.27;;;0.35;;
46613;SDS011;32338;50.430;6.806;2024-03-02T13:55:26;0.60;;;0.40;;
46613;SDS011;32338;50.430;6.806;2024-03-02T13:57:52;0.60;;;0.40;;
46613;SDS011;32338;50.430;6.806;2024-03-02T14:00:19;1.08;;;0.40;;
46613;SDS011;32338;50.430;6.806;2024-03-02T14:02:46;0.35;;;0.22;;
46613;SDS011;32338;50.430;6.806;2024-03-02T14:05:14;0.68;;;0.38;;
46613;SDS011;32338;50.430;6.806;2024-03-02T14:07:41;0.43;;;0.30;;
46613;SDS011;32338;50.430;6.806;2024-03-02T14:10:08;1.10;;;0.20;;
46613;SDS011;32338;50.430;6.806;2024-03-02T14:12:37;0.88;;;0.30;;
46613;SDS011;32338;50.430;6.806;2024-03-02T14:15:04;1.38;;;0.35;;
46613;SDS011;32338;50.430;6.806;2024-03-02T14:17:31;0.63;;;0.30;;
46613;SDS011;32338;50.430;6.806;2024-03-02T14:19:58;0.50;;;0.40;;
46613;SDS011;32338;50.430;6.806;2024-03-02T14:22:25;1.50;;;0.20;;
46613;SDS011;32338;50.430;6.806;2024-03-02T14:24:51;0.50;;;0.30;;
46613;SDS011;32338;50.430;6.806;2024-03-02T14:27:18;0.68;;;0.30;;
46613;SDS011;32338;50.430;6.806;2024-03-02T14:29:47;0.80;;;0.30;;
46613;SDS011;32338;50.430;6.806;2024-03-02T14:32:14;0.40;;;0.30;;
46613;SDS011;32338;50.430;6.806;2024-03-02T14:34:40;2.92;;;0.30;;
46613;SDS011;32338;50.430;6.806;2024-03-02T14:37:07;0.43;;;0.30;;
46613;SDS011;32338;50.430;6.806;2024-03-02T14:39:34;0.45;;;0.30;;
46613;SDS011;32338;50.430;6.806;2024-03-02T14:42:01;1.25;;;0.40;;
46613;SDS011;32338;50.430;6.806;2024-03-02T14:44:28;0.90;;;0.45;;
46613;SDS011;32338;50.430;6.806;2024-03-02T14:46:56;0.47;;;0.40;;
46613;SDS011;32338;50.430;6.806;2024-03-02T14:49:23;0.55;;;0.30;;
46613;SDS011;32338;50.430;6.806;2024-03-02T14:51:50;2.53;;;0.50;;